createdAt,value
2022-11-29T00:02:00.921Z,21.70
2022-11-29T00:04:30.267Z,21.65
2022-11-29T00:06:59.489Z,23.70
2022-11-29T00:09:28.697Z,18.50
2022-11-29T00:12:19.163Z,17.90
2022-11-29T00:14:48.425Z,15.32
2022-11-29T00:17:17.603Z,16.08
2022-11-29T00:19:47.648Z,16.05
2022-11-29T00:22:17.120Z,18.30
2022-11-29T00:24:46.536Z,17.95
2022-11-29T00:27:15.854Z,16.83
2022-11-29T00:29:45.100Z,16.35
2022-11-29T00:32:14.324Z,17.27
2022-11-29T00:34:43.970Z,17.70
2022-11-29T00:37:13.387Z,17.27
2022-11-29T00:39:42.553Z,18.17
2022-11-29T00:42:11.815Z,17.23
2022-11-29T00:44:41.354Z,16.73
2022-11-29T00:47:10.760Z,17.50
2022-11-29T00:49:39.935Z,18.08
2022-11-29T00:52:09.131Z,16.65
2022-11-29T00:54:38.424Z,17.05
2022-11-29T00:57:07.671Z,17.90
2022-11-29T00:59:36.888Z,17.27
2022-11-29T01:02:06.238Z,15.88
2022-11-29T01:04:35.475Z,18.52
2022-11-29T01:07:04.969Z,16.42
2022-11-29T01:09:34.186Z,16.02
2022-11-29T01:12:03.370Z,17.48
2022-11-29T01:14:32.588Z,17.73
2022-11-29T01:17:01.992Z,18.27
2022-11-29T01:19:31.308Z,17.55
2022-11-29T01:22:00.517Z,17.38
2022-11-29T01:24:29.857Z,16.10
2022-11-29T01:26:59.069Z,15.15
2022-11-29T01:29:28.305Z,16.30
2022-11-29T01:31:57.555Z,18.77
2022-11-29T01:34:26.749Z,17.65
2022-11-29T01:36:56.120Z,17.35
2022-11-29T01:39:25.381Z,17.50
2022-11-29T01:41:55.119Z,16.83
2022-11-29T01:44:24.329Z,16.35
2022-11-29T01:46:53.565Z,16.27
2022-11-29T01:49:25.261Z,15.70
2022-11-29T01:51:56.353Z,17.17
2022-11-29T01:54:25.593Z,16.02
2022-11-29T01:56:55.260Z,16.15
2022-11-29T01:59:25.908Z,16.27
2022-11-29T02:01:55.721Z,15.88
2022-11-29T02:04:25.040Z,14.90
2022-11-29T02:06:54.249Z,16.23
2022-11-29T02:09:24.859Z,13.73
2022-11-29T02:12:06.489Z,15.65
2022-11-29T02:14:35.659Z,16.42
2022-11-29T02:17:07.953Z,16.15
2022-11-29T02:19:55.954Z,14.82
2022-11-29T02:22:31.720Z,15.75
2022-11-29T02:25:07.016Z,14.93
2022-11-29T02:27:51.476Z,16.38
2022-11-29T02:30:35.152Z,16.52
2022-11-29T02:33:23.172Z,15.32
2022-11-29T02:36:11.253Z,14.68
2022-11-29T02:39:05.451Z,14.30
2022-11-29T02:41:46.167Z,15.73
2022-11-29T02:44:18.451Z,14.43
2022-11-29T02:46:57.034Z,15.68
2022-11-29T02:49:45.307Z,16.42
2022-11-29T02:52:28.753Z,16.08
2022-11-29T02:55:09.603Z,15.25
2022-11-29T02:57:43.960Z,15.80
2022-11-29T03:00:17.659Z,17.33
2022-11-29T03:03:05.728Z,17.45
2022-11-29T03:05:48.570Z,16.10
2022-11-29T03:08:21.065Z,16.08
2022-11-29T03:13:40.585Z,17.33
2022-11-29T03:16:16.740Z,13.65
2022-11-29T03:18:50.891Z,15.75
2022-11-29T03:21:20.048Z,16.13
2022-11-29T03:23:53.917Z,15.90
2022-11-29T03:26:23.088Z,16.88
2022-11-29T03:29:11.084Z,15.65
2022-11-29T03:31:45.763Z,15.48
2022-11-29T03:34:22.730Z,17.55
2022-11-29T03:37:04.067Z,17.60
2022-11-29T03:39:40.015Z,15.52
2022-11-29T03:42:12.326Z,16.98
2022-11-29T03:44:59.035Z,16.88
2022-11-29T03:47:34.630Z,16.00
2022-11-29T03:50:14.069Z,16.67
2022-11-29T03:52:50.600Z,16.90
2022-11-29T03:55:38.713Z,18.85
2022-11-29T03:58:16.986Z,16.88
2022-11-29T04:00:52.122Z,16.83
2022-11-29T04:03:21.379Z,16.50
2022-11-29T04:05:56.605Z,16.13
2022-11-29T04:08:28.609Z,16.98
2022-11-29T04:11:07.015Z,15.43
2022-11-29T04:13:54.960Z,18.40
2022-11-29T04:16:43.221Z,17.33
2022-11-29T04:19:30.832Z,18.52
2022-11-29T04:22:15.525Z,17.45
2022-11-29T04:24:47.790Z,18.60
2022-11-29T04:27:16.982Z,15.45
2022-11-29T04:30:04.591Z,16.85
2022-11-29T04:32:52.234Z,17.67
2022-11-29T04:35:33.664Z,18.25
2022-11-29T04:38:13.080Z,16.67
2022-11-29T04:40:58.595Z,16.23
2022-11-29T04:43:43.897Z,16.80
2022-11-29T04:46:19.197Z,16.90
2022-11-29T04:48:55.516Z,17.73
2022-11-29T04:51:43.492Z,19.08
2022-11-29T04:54:23.776Z,16.98
2022-11-29T04:56:55.462Z,18.50
2022-11-29T04:59:43.284Z,18.90
2022-11-29T05:02:27.916Z,19.55
2022-11-29T05:05:15.982Z,19.02
2022-11-29T05:07:45.177Z,19.02
2022-11-29T05:10:26.644Z,19.20
2022-11-29T05:13:14.326Z,19.80
2022-11-29T05:15:46.489Z,20.73
2022-11-29T05:18:15.758Z,20.60
2022-11-29T05:20:54.278Z,20.10
2022-11-29T05:23:42.564Z,18.42
2022-11-29T05:26:22.384Z,16.58
2022-11-29T05:28:55.578Z,18.63
2022-11-29T05:31:32.780Z,16.38
2022-11-29T05:34:02.038Z,16.85
2022-11-29T05:36:40.564Z,17.80
2022-11-29T05:39:15.736Z,17.67
2022-11-29T05:42:12.948Z,17.27
2022-11-29T05:45:02.388Z,16.83
2022-11-29T05:47:49.616Z,16.27
2022-11-29T05:50:23.898Z,15.55
2022-11-29T05:53:01.885Z,18.05
2022-11-29T05:55:49.935Z,17.90
2022-11-29T05:58:30.999Z,17.95
2022-11-29T06:01:06.993Z,17.42
2022-11-29T06:03:39.632Z,17.38
2022-11-29T06:06:15.713Z,17.65
2022-11-29T06:08:50.987Z,17.30
2022-11-29T06:11:24.573Z,16.58
2022-11-29T06:14:02.899Z,16.65
2022-11-29T06:16:47.821Z,17.67
2022-11-29T06:19:35.910Z,18.65
2022-11-29T06:22:21.063Z,18.80
2022-11-29T06:24:50.843Z,17.98
2022-11-29T06:27:38.537Z,16.70
2022-11-29T06:30:12.414Z,16.30
2022-11-29T06:32:47.932Z,18.98
2022-11-29T06:35:29.648Z,17.67
2022-11-29T06:37:59.247Z,18.20
2022-11-29T06:40:28.836Z,17.10
2022-11-29T06:42:58.254Z,15.60
2022-11-29T06:45:27.863Z,19.05
2022-11-29T06:48:07.830Z,17.95
2022-11-29T06:50:42.974Z,16.90
2022-11-29T06:53:34.088Z,17.88
2022-11-29T06:56:22.285Z,17.73
2022-11-29T06:58:58.473Z,17.08
2022-11-29T07:01:34.131Z,17.63
2022-11-29T07:04:06.122Z,17.73
2022-11-29T07:06:36.129Z,18.10
2022-11-29T07:09:11.413Z,17.65
2022-11-29T07:11:40.879Z,18.80
2022-11-29T07:14:10.233Z,17.50
2022-11-29T07:16:45.595Z,19.42
2022-11-29T07:19:20.963Z,16.58
2022-11-29T07:22:01.424Z,18.85
2022-11-29T07:24:45.907Z,18.90
2022-11-29T07:27:24.523Z,17.90
2022-11-29T07:29:53.706Z,19.92
2022-11-29T07:32:36.081Z,18.13
2022-11-29T07:35:11.245Z,21.15
2022-11-29T07:37:59.439Z,20.88
2022-11-29T07:40:37.783Z,18.70
2022-11-29T07:43:25.724Z,19.60
2022-11-29T07:45:54.977Z,20.25
2022-11-29T07:48:24.729Z,20.65
2022-11-29T07:50:54.035Z,19.50
2022-11-29T07:53:24.289Z,18.33
2022-11-29T07:55:53.985Z,18.73
2022-11-29T07:58:23.929Z,18.25
2022-11-29T08:00:53.988Z,19.17
2022-11-29T08:03:23.332Z,15.85
2022-11-29T08:05:52.641Z,17.23
2022-11-29T08:08:21.853Z,18.08
2022-11-29T08:10:51.025Z,18.40
2022-11-29T08:13:21.863Z,15.77
2022-11-29T08:15:51.286Z,16.83
2022-11-29T08:18:20.661Z,16.55
2022-11-29T08:20:49.979Z,15.70
2022-11-29T08:23:19.442Z,17.02
2022-11-29T08:25:50.423Z,14.77
2022-11-29T08:28:19.980Z,15.25
2022-11-29T08:30:49.656Z,15.90
2022-11-29T08:33:19.028Z,13.55
2022-11-29T08:35:48.427Z,15.73
2022-11-29T08:38:17.644Z,16.30
2022-11-29T08:40:46.876Z,16.23
2022-11-29T08:43:16.079Z,15.73
2022-11-29T08:45:45.316Z,14.45
2022-11-29T08:48:16.208Z,15.80
2022-11-29T08:50:45.532Z,14.48
2022-11-29T08:53:27.771Z,15.10
2022-11-29T08:56:01.605Z,17.58
2022-11-29T08:58:32.034Z,16.23
2022-11-29T09:01:01.487Z,16.45
2022-11-29T09:03:43.364Z,15.43
2022-11-29T09:06:14.117Z,15.18
2022-11-29T09:08:44.963Z,15.18
2022-11-29T09:11:16.548Z,14.50
2022-11-29T09:13:46.824Z,13.50
2022-11-29T09:16:18.087Z,15.05
2022-11-29T09:18:51.800Z,12.88
2022-11-29T09:21:21.646Z,14.50
2022-11-29T09:23:51.053Z,15.38
2022-11-29T09:26:21.341Z,14.48
2022-11-29T09:28:50.628Z,13.15
2022-11-29T09:31:20.673Z,13.85
2022-11-29T09:33:50.546Z,14.70
2022-11-29T09:36:23.698Z,12.23
2022-11-29T09:38:56.050Z,14.98
2022-11-29T09:41:25.340Z,15.38
2022-11-29T09:44:19.175Z,13.63
2022-11-29T09:47:00.481Z,13.95
2022-11-29T09:49:49.308Z,13.65
2022-11-29T09:52:18.656Z,14.32
2022-11-29T09:54:54.748Z,14.15
2022-11-29T09:57:27.104Z,13.15
2022-11-29T09:59:59.691Z,13.15
2022-11-29T10:02:45.527Z,12.50
2022-11-29T10:05:20.974Z,13.85
2022-11-29T10:08:02.389Z,13.30
2022-11-29T10:10:44.045Z,14.35
2022-11-29T10:13:27.844Z,13.63
2022-11-29T10:16:19.439Z,14.93
2022-11-29T10:18:58.745Z,15.27
2022-11-29T10:21:31.150Z,13.38
2022-11-29T10:26:34.982Z,13.20
2022-11-29T10:29:04.703Z,12.25
2022-11-29T10:31:43.046Z,13.90
2022-11-29T10:34:20.335Z,12.25
2022-11-29T10:36:51.801Z,11.90
2022-11-29T10:39:24.109Z,12.30
2022-11-29T10:41:56.640Z,12.65
2022-11-29T10:46:55.524Z,12.55
2022-11-29T10:49:27.354Z,10.95
2022-11-29T10:51:56.885Z,10.85
2022-11-29T10:54:44.680Z,9.93
2022-11-29T10:57:18.903Z,9.45
2022-11-29T11:00:01.575Z,9.73
2022-11-29T11:05:01.612Z,11.52
2022-11-29T11:07:35.695Z,9.57
2022-11-29T11:10:08.165Z,11.82
2022-11-29T11:15:17.372Z,11.57
2022-11-29T11:18:06.983Z,10.20
2022-11-29T11:20:38.122Z,11.40
2022-11-29T11:23:09.399Z,11.75
2022-11-29T11:25:42.382Z,11.35
2022-11-29T11:28:18.242Z,10.40
2022-11-29T11:31:01.540Z,9.85
2022-11-29T11:33:32.920Z,11.55
2022-11-29T11:36:21.082Z,11.52
2022-11-29T11:38:53.194Z,10.38
2022-11-29T11:41:46.185Z,12.45
2022-11-29T11:44:46.966Z,11.98
2022-11-29T11:47:19.206Z,11.75
2022-11-29T11:50:04.634Z,10.57
2022-11-29T11:52:41.346Z,10.05
2022-11-29T11:55:25.498Z,12.05
2022-11-29T11:58:10.209Z,10.13
2022-11-29T12:01:08.884Z,8.68
2022-11-29T12:03:50.827Z,11.00
2022-11-29T12:06:38.074Z,10.05
2022-11-29T12:09:20.459Z,9.63
2022-11-29T12:11:53.984Z,10.00
2022-11-29T12:14:33.073Z,9.77
2022-11-29T12:17:08.177Z,11.65
2022-11-29T12:19:41.079Z,9.38
2022-11-29T12:22:13.707Z,10.50
2022-11-29T12:24:47.120Z,11.52
2022-11-29T12:27:16.774Z,12.07
2022-11-29T12:29:46.055Z,11.30
2022-11-29T12:32:28.740Z,10.60
2022-11-29T12:37:33.578Z,11.25
2022-11-29T12:40:16.964Z,11.55
2022-11-29T12:42:49.287Z,11.18
2022-11-29T12:48:00.833Z,11.57
2022-11-29T12:50:45.372Z,11.45
2022-11-29T12:53:27.299Z,11.98
2022-11-29T12:56:10.974Z,10.95
2022-11-29T12:58:46.462Z,11.85
2022-11-29T13:01:34.335Z,11.98
2022-11-29T13:04:14.186Z,12.23
2022-11-29T13:06:43.427Z,11.10
2022-11-29T13:09:21.669Z,10.60
2022-11-29T13:11:59.379Z,11.07
2022-11-29T13:14:43.641Z,12.85
2022-11-29T13:17:33.993Z,11.45
2022-11-29T13:20:32.780Z,11.77
2022-11-29T13:23:01.976Z,11.52
2022-11-29T13:25:33.140Z,10.70
2022-11-29T13:28:23.464Z,13.13
2022-11-29T13:30:53.423Z,12.00
2022-11-29T13:33:26.666Z,11.98
2022-11-29T13:35:58.749Z,12.52
2022-11-29T13:38:32.869Z,13.23
2022-11-29T13:41:10.957Z,12.38
2022-11-29T13:43:44.147Z,11.95
2022-11-29T13:46:21.892Z,12.95
2022-11-29T13:48:53.499Z,11.95
2022-11-29T13:51:33.913Z,12.65
2022-11-29T13:54:04.618Z,12.85
2022-11-29T13:56:42.810Z,10.95
2022-11-29T13:59:19.120Z,11.75
2022-11-29T14:01:53.913Z,11.52
2022-11-29T14:04:31.734Z,13.48
2022-11-29T14:07:21.216Z,11.15
2022-11-29T14:10:09.922Z,10.73
2022-11-29T14:12:39.679Z,12.60
2022-11-29T14:15:20.982Z,12.73
2022-11-29T14:17:50.204Z,11.75
2022-11-29T14:20:25.848Z,11.43
2022-11-29T14:23:07.650Z,10.73
2022-11-29T14:25:53.461Z,11.50
2022-11-29T14:28:25.953Z,12.23
2022-11-29T14:33:25.355Z,11.02
2022-11-29T14:36:19.799Z,11.43
2022-11-29T14:39:07.595Z,12.60
2022-11-29T14:41:55.718Z,11.30
2022-11-29T14:44:28.332Z,12.30
2022-11-29T14:47:16.545Z,13.15
2022-11-29T14:49:47.143Z,13.15
2022-11-29T14:52:16.430Z,14.70
2022-11-29T14:55:12.061Z,13.30
2022-11-29T14:57:51.707Z,11.50
2022-11-29T15:00:21.241Z,11.93
2022-11-29T15:02:55.860Z,12.48
2022-11-29T15:05:46.701Z,13.20
2022-11-29T15:08:32.160Z,12.13
2022-11-29T15:11:14.019Z,13.20
2022-11-29T15:14:03.535Z,12.57
2022-11-29T15:16:59.289Z,12.75
2022-11-29T15:19:46.600Z,12.85
2022-11-29T15:22:20.863Z,11.80
2022-11-29T15:24:57.759Z,12.48
2022-11-29T15:27:27.299Z,12.77
2022-11-29T15:29:56.670Z,12.48
2022-11-29T15:32:28.670Z,13.50
2022-11-29T15:34:58.476Z,14.57
2022-11-29T15:37:48.875Z,13.05
2022-11-29T15:40:22.463Z,12.57
2022-11-29T15:42:54.163Z,13.27
2022-11-29T15:45:29.158Z,13.35
2022-11-29T15:48:12.234Z,11.68
2022-11-29T15:50:42.149Z,13.43
2022-11-29T15:53:17.904Z,12.82
2022-11-29T15:55:50.916Z,13.48
2022-11-29T15:58:20.977Z,12.40
2022-11-29T16:00:52.303Z,13.25
2022-11-29T16:03:25.319Z,11.87
2022-11-29T16:06:14.905Z,12.27
2022-11-29T16:08:44.674Z,12.25
2022-11-29T16:11:19.867Z,13.50
2022-11-29T16:14:07.958Z,12.27
2022-11-29T16:16:37.291Z,11.98
2022-11-29T16:19:36.946Z,13.15
2022-11-29T16:22:15.439Z,13.55
2022-11-29T16:25:03.752Z,14.55
2022-11-29T16:27:34.664Z,14.32
2022-11-29T16:30:04.575Z,14.25
2022-11-29T16:32:35.612Z,13.15
2022-11-29T16:35:09.781Z,14.52
2022-11-29T16:37:43.209Z,15.00
2022-11-29T16:40:25.802Z,15.05
2022-11-29T16:45:35.293Z,12.65
2022-11-29T16:48:05.230Z,14.77
2022-11-29T16:50:35.342Z,13.57
2022-11-29T16:53:23.281Z,13.18
2022-11-29T16:55:52.547Z,13.45
2022-11-29T16:58:21.819Z,12.57
2022-11-29T17:00:51.134Z,11.80
2022-11-29T17:03:20.682Z,13.77
2022-11-29T17:05:49.923Z,13.88
2022-11-29T17:08:19.192Z,12.93
2022-11-29T17:10:48.469Z,13.48
2022-11-29T17:13:17.774Z,12.75
2022-11-29T17:15:47.080Z,14.15
2022-11-29T17:18:16.344Z,12.57
2022-11-29T17:20:45.660Z,11.40
2022-11-29T17:23:15.062Z,13.38
2022-11-29T17:25:44.347Z,13.75
2022-11-29T17:28:13.621Z,15.15
2022-11-29T17:30:42.892Z,14.30
2022-11-29T17:33:12.152Z,16.83
2022-11-29T17:35:41.467Z,18.63
2022-11-29T17:38:10.752Z,14.68
2022-11-29T17:40:43.140Z,15.20
2022-11-29T17:45:42.330Z,15.52
2022-11-29T17:48:11.644Z,17.35
2022-11-29T17:50:41.191Z,16.23
2022-11-29T17:53:10.443Z,16.42
2022-11-29T17:55:39.843Z,16.75
2022-11-29T17:58:09.106Z,16.83
2022-11-29T18:00:38.455Z,15.95
2022-11-29T18:03:07.727Z,15.80
2022-11-29T18:05:37.053Z,15.05
2022-11-29T18:08:06.415Z,16.08
2022-11-29T18:10:36.374Z,15.65
2022-11-29T18:13:05.615Z,17.50
2022-11-29T18:15:35.368Z,16.27
2022-11-29T18:18:04.650Z,15.40
2022-11-29T18:20:33.915Z,16.13
2022-11-29T18:23:07.775Z,16.35
2022-11-29T18:25:39.233Z,16.15
2022-11-29T18:28:11.352Z,16.05
2022-11-29T18:30:40.672Z,15.55
2022-11-29T18:33:09.930Z,15.60
2022-11-29T18:35:39.203Z,14.95
2022-11-29T18:38:16.630Z,16.48
2022-11-29T18:40:47.278Z,15.60
2022-11-29T18:43:18.678Z,16.85
2022-11-29T18:45:48.053Z,17.25
2022-11-29T18:48:17.426Z,15.85
2022-11-29T18:50:46.697Z,15.45
2022-11-29T18:53:16.466Z,14.60
2022-11-29T18:55:45.806Z,14.68
2022-11-29T18:58:15.085Z,14.50
2022-11-29T19:00:44.574Z,17.52
2022-11-29T19:03:13.819Z,15.38
2022-11-29T19:05:43.064Z,17.70
2022-11-29T19:08:12.303Z,18.17
2022-11-29T19:10:41.599Z,15.90
2022-11-29T19:13:10.884Z,16.80
2022-11-29T19:15:40.256Z,13.52
2022-11-29T19:18:09.592Z,15.90
2022-11-29T19:20:38.902Z,15.40
2022-11-29T19:23:08.227Z,17.38
2022-11-29T19:25:37.486Z,15.57
2022-11-29T19:28:12.555Z,14.25
2022-11-29T19:30:43.349Z,15.30
2022-11-29T19:33:12.625Z,16.08
2022-11-29T19:35:41.975Z,15.85
2022-11-29T19:38:11.257Z,17.05
2022-11-29T19:40:43.767Z,17.33
2022-11-29T19:43:13.061Z,16.08
2022-11-29T19:45:43.144Z,16.15
2022-11-29T19:48:12.403Z,15.73
2022-11-29T19:50:41.703Z,17.33
2022-11-29T19:53:11.020Z,16.00
2022-11-29T19:55:44.183Z,16.33
2022-11-29T19:58:13.657Z,16.08
2022-11-29T20:00:42.884Z,15.82
2022-11-29T20:03:12.187Z,15.20
2022-11-29T20:05:41.476Z,16.88
2022-11-29T20:08:10.716Z,17.70
2022-11-29T20:10:39.996Z,17.83
2022-11-29T20:13:09.274Z,15.82
2022-11-29T20:15:38.529Z,16.23
2022-11-29T20:18:07.884Z,16.85
2022-11-29T20:20:37.301Z,16.73
2022-11-29T20:23:06.579Z,19.20
2022-11-29T20:25:36.878Z,20.90
2022-11-29T20:28:06.918Z,19.75
2022-11-29T20:30:36.804Z,17.52
2022-11-29T20:33:06.356Z,17.58
2022-11-29T20:35:36.246Z,18.15
2022-11-29T20:38:10.973Z,17.70
2022-11-29T20:40:44.806Z,19.33
2022-11-29T20:43:18.147Z,19.52
2022-11-29T20:45:47.551Z,17.55
2022-11-29T20:48:19.447Z,18.25
2022-11-29T20:50:51.393Z,20.20
2022-11-29T20:53:34.716Z,18.45
2022-11-29T20:56:04.072Z,18.83
2022-11-29T20:58:33.554Z,19.95
2022-11-29T21:01:02.981Z,19.92
2022-11-29T21:03:32.776Z,18.38
2022-11-29T21:06:04.241Z,18.92
2022-11-29T21:08:33.602Z,19.47
2022-11-29T21:11:10.731Z,19.13
2022-11-29T21:13:40.055Z,19.17
2022-11-29T21:16:09.725Z,19.45
2022-11-29T21:18:39.138Z,18.42
2022-11-29T21:21:20.594Z,19.38
2022-11-29T21:23:55.334Z,19.90
2022-11-29T21:26:31.821Z,20.77
2022-11-29T21:29:07.433Z,18.58
2022-11-29T21:31:36.846Z,20.65
2022-11-29T21:34:06.177Z,17.27
2022-11-29T21:36:35.491Z,19.90
2022-11-29T21:39:05.556Z,19.23
2022-11-29T21:41:34.888Z,18.60
2022-11-29T21:44:07.061Z,21.50
2022-11-29T21:46:37.476Z,18.13
2022-11-29T21:49:07.552Z,21.20
2022-11-29T21:51:36.831Z,20.48
2022-11-29T21:54:06.253Z,18.80
2022-11-29T21:56:35.530Z,19.50
2022-11-29T21:59:05.147Z,17.58
2022-11-29T22:01:34.451Z,17.42
2022-11-29T22:04:04.253Z,19.05
2022-11-29T22:06:33.593Z,18.75
2022-11-29T22:09:02.915Z,17.38
2022-11-29T22:11:35.570Z,18.45
2022-11-29T22:14:18.727Z,20.13
2022-11-29T22:17:01.718Z,20.73
2022-11-29T22:19:34.816Z,20.80
2022-11-29T22:22:05.466Z,19.30
2022-11-29T22:24:35.964Z,19.35
2022-11-29T22:27:05.252Z,19.95
2022-11-29T22:29:34.605Z,22.13
2022-11-29T22:32:03.933Z,20.10
2022-11-29T22:34:33.214Z,20.33
2022-11-29T22:37:02.537Z,17.95
2022-11-29T22:39:31.891Z,16.00
2022-11-29T22:42:01.179Z,19.23
2022-11-29T22:44:31.286Z,19.73
2022-11-29T22:47:00.613Z,17.58
2022-11-29T22:49:30.033Z,18.25
2022-11-29T22:51:59.303Z,17.10
2022-11-29T22:54:28.584Z,16.25
2022-11-29T22:56:57.978Z,16.33
2022-11-29T22:59:27.333Z,16.48
2022-11-29T23:01:56.638Z,16.60
2022-11-29T23:04:25.933Z,17.67
2022-11-29T23:06:55.234Z,17.85
2022-11-29T23:09:24.617Z,16.33
2022-11-29T23:11:57.680Z,15.20
2022-11-29T23:14:27.088Z,15.77
2022-11-29T23:16:56.436Z,15.13
2022-11-29T23:19:25.750Z,13.55
2022-11-29T23:21:56.639Z,15.70
2022-11-29T23:24:25.962Z,15.15
2022-11-29T23:26:55.232Z,14.57
2022-11-29T23:29:24.539Z,13.90
2022-11-29T23:31:54.011Z,15.57
2022-11-29T23:34:26.499Z,14.40
2022-11-29T23:39:24.945Z,13.52
2022-11-29T23:41:54.210Z,12.32
2022-11-29T23:44:26.642Z,12.65
2022-11-29T23:46:55.998Z,14.05
2022-11-29T23:49:25.337Z,13.43
2022-11-29T23:51:54.589Z,14.00
2022-11-29T23:54:23.866Z,13.50
2022-11-29T23:56:53.181Z,13.07
2022-11-29T23:59:22.402Z,12.45
